createdAt,value
2024-02-13T00:02:14.942Z,96.49
2024-02-13T00:04:44.324Z,96.33
2024-02-13T00:07:14.895Z,95.96
2024-02-13T00:09:45.497Z,95.71
2024-02-13T00:12:15.002Z,95.77
2024-02-13T00:14:48.121Z,95.11
2024-02-13T00:17:17.834Z,94.84
2024-02-13T00:19:47.286Z,94.81
2024-02-13T00:22:17.842Z,94.83
2024-02-13T00:24:50.389Z,94.54
2024-02-13T00:27:20.043Z,94.59
2024-02-13T00:29:50.936Z,94.34
2024-02-13T00:32:20.468Z,94.05
2024-02-13T00:34:50.889Z,93.95
2024-02-13T00:37:21.449Z,93.58
2024-02-13T00:39:50.884Z,93.64
2024-02-13T00:42:20.025Z,94.31
2024-02-13T00:44:50.336Z,93.38
2024-02-13T00:47:20.134Z,93.86
2024-02-13T00:49:49.621Z,94.00
2024-02-13T00:52:20.084Z,94.27
2024-02-13T00:54:50.804Z,93.79
2024-02-13T00:57:23.227Z,93.65
2024-02-13T00:59:59.046Z,93.35
2024-02-13T01:02:37.528Z,93.83
2024-02-13T01:05:10.649Z,93.36
2024-02-13T01:07:41.122Z,93.62
2024-02-13T01:10:11.231Z,93.76
2024-02-13T01:12:40.435Z,93.88
2024-02-13T01:15:10.473Z,93.61
2024-02-13T01:17:39.710Z,93.67
2024-02-13T01:20:12.625Z,93.39
2024-02-13T01:22:43.339Z,93.38
2024-02-13T01:25:15.459Z,93.65
2024-02-13T01:27:44.752Z,93.36
2024-02-13T01:30:16.153Z,92.98
2024-02-13T01:32:45.436Z,92.22
2024-02-13T01:35:17.486Z,92.79
2024-02-13T01:37:48.573Z,92.97
2024-02-13T01:40:18.771Z,92.74
2024-02-13T01:42:50.027Z,92.49
2024-02-13T01:45:20.146Z,92.39
2024-02-13T01:47:49.633Z,92.47
2024-02-13T01:50:21.797Z,92.49
2024-02-13T01:52:53.958Z,92.58
2024-02-13T01:55:26.558Z,92.48
2024-02-13T01:58:03.204Z,92.14
2024-02-13T02:00:35.404Z,91.95
2024-02-13T02:03:05.967Z,91.76
2024-02-13T02:05:35.593Z,92.03
2024-02-13T02:08:06.593Z,92.07
2024-02-13T02:10:36.217Z,92.07
2024-02-13T02:13:10.998Z,91.71
2024-02-13T02:15:43.680Z,91.31
2024-02-13T02:18:13.829Z,91.20
2024-02-13T02:20:43.418Z,90.77
2024-02-13T02:23:14.284Z,90.80
2024-02-13T02:25:45.069Z,90.82
2024-02-13T02:28:16.537Z,91.04
2024-02-13T02:30:46.556Z,90.54
2024-02-13T02:33:16.356Z,90.63
2024-02-13T02:35:45.883Z,90.49
2024-02-13T02:38:15.664Z,90.75
2024-02-13T02:40:46.415Z,90.61
2024-02-13T02:43:15.584Z,91.01
2024-02-13T02:45:46.483Z,91.04
2024-02-13T02:48:17.940Z,91.06
2024-02-13T02:50:47.760Z,91.18
2024-02-13T02:53:19.996Z,91.38
2024-02-13T02:55:52.540Z,91.26
2024-02-13T02:58:22.201Z,91.22
2024-02-13T03:00:52.042Z,90.95
2024-02-13T03:03:22.865Z,90.47
2024-02-13T03:05:53.479Z,90.47
2024-02-13T03:08:23.103Z,90.06
2024-02-13T03:10:54.153Z,90.36
2024-02-13T03:13:23.370Z,90.31
2024-02-13T03:15:52.768Z,89.92
2024-02-13T03:18:25.964Z,89.59
2024-02-13T03:20:55.599Z,90.21
2024-02-13T03:23:24.734Z,90.17
2024-02-13T03:25:55.542Z,90.44
2024-02-13T03:28:24.831Z,90.40
2024-02-13T03:30:55.527Z,90.29
2024-02-13T03:33:25.844Z,90.55
2024-02-13T03:35:55.587Z,90.76
2024-02-13T03:38:24.700Z,90.86
2024-02-13T03:40:55.464Z,90.58
2024-02-13T03:43:24.669Z,90.20
2024-02-13T03:45:54.498Z,90.50
2024-02-13T03:48:23.883Z,90.88
2024-02-13T03:50:53.689Z,91.30
2024-02-13T03:53:22.768Z,91.07
2024-02-13T03:55:52.261Z,90.60
2024-02-13T03:58:22.747Z,90.73
2024-02-13T04:00:52.328Z,90.98
2024-02-13T04:03:21.416Z,91.11
2024-02-13T04:05:51.805Z,91.43
2024-02-13T04:08:21.050Z,91.33
2024-02-13T04:10:50.744Z,91.49
2024-02-13T04:13:21.327Z,91.41
2024-02-13T04:15:52.740Z,91.68
2024-02-13T04:18:23.875Z,91.73
2024-02-13T04:20:53.372Z,91.40
2024-02-13T04:23:22.534Z,91.45
2024-02-13T04:25:51.988Z,91.45
2024-02-13T04:28:24.050Z,91.58
2024-02-13T04:30:53.702Z,91.16
2024-02-13T04:33:22.879Z,91.19
2024-02-13T04:35:52.273Z,91.04
2024-02-13T04:38:21.842Z,91.41
2024-02-13T04:40:51.762Z,91.38
2024-02-13T04:43:22.461Z,91.78
2024-02-13T04:45:51.876Z,92.83
2024-02-13T04:48:23.098Z,92.88
2024-02-13T04:50:54.258Z,93.05
2024-02-13T04:53:23.553Z,93.52
2024-02-13T04:55:57.490Z,94.15
2024-02-13T04:58:42.898Z,93.55
2024-02-13T05:01:15.939Z,93.40
2024-02-13T05:04:05.518Z,93.62
2024-02-13T05:06:52.089Z,94.26
2024-02-13T05:09:21.312Z,94.48
2024-02-13T05:11:50.768Z,94.49
2024-02-13T05:14:21.481Z,94.48
2024-02-13T05:16:50.968Z,94.71
2024-02-13T05:19:20.148Z,94.41
2024-02-13T05:21:51.978Z,94.19
2024-02-13T05:24:21.276Z,95.00
2024-02-13T05:26:50.730Z,94.65
2024-02-13T05:29:21.342Z,94.87
2024-02-13T05:31:52.455Z,94.31
2024-02-13T05:34:21.845Z,94.04
2024-02-13T05:36:51.707Z,94.44
2024-02-13T05:39:20.882Z,94.32
2024-02-13T05:41:50.413Z,94.45
2024-02-13T05:44:20.936Z,94.55
2024-02-13T05:46:50.463Z,94.65
2024-02-13T05:49:19.619Z,94.56
2024-02-13T05:51:49.381Z,94.69
2024-02-13T05:54:18.712Z,94.70
2024-02-13T05:56:48.978Z,95.14
2024-02-13T05:59:19.373Z,96.29
2024-02-13T06:01:50.511Z,96.48
2024-02-13T06:04:19.753Z,95.84
2024-02-13T06:06:49.256Z,95.81
2024-02-13T06:09:22.430Z,95.82
2024-02-13T06:11:51.964Z,95.98
2024-02-13T06:14:21.228Z,95.47
2024-02-13T06:16:52.024Z,95.55
2024-02-13T06:19:21.377Z,95.84
2024-02-13T06:21:51.282Z,96.70
2024-02-13T06:24:20.706Z,96.71
2024-02-13T06:26:51.236Z,96.53
2024-02-13T06:29:21.456Z,96.18
2024-02-13T06:31:56.095Z,96.52
2024-02-13T06:34:25.511Z,96.49
2024-02-13T06:36:54.972Z,96.60
2024-02-13T06:39:26.849Z,96.85
2024-02-13T06:41:56.423Z,96.67
2024-02-13T06:44:25.648Z,96.75
2024-02-13T06:46:56.790Z,96.31
2024-02-13T06:49:27.589Z,95.93
2024-02-13T06:51:58.489Z,94.93
2024-02-13T06:54:27.557Z,94.68
2024-02-13T06:56:57.016Z,93.75
2024-02-13T06:59:28.609Z,93.54
2024-02-13T07:02:01.132Z,93.14
2024-02-13T07:04:30.713Z,92.25
2024-02-13T07:07:13.794Z,92.49
2024-02-13T07:09:53.833Z,91.77
2024-02-13T07:12:23.723Z,91.05
2024-02-13T07:14:53.465Z,90.93
2024-02-13T07:17:24.486Z,90.87
2024-02-13T07:19:54.648Z,90.37
2024-02-13T07:22:23.953Z,89.44
2024-02-13T07:24:53.028Z,89.02
2024-02-13T07:27:22.676Z,88.86
2024-02-13T07:29:51.978Z,88.67
2024-02-13T07:32:22.101Z,88.06
2024-02-13T07:34:53.577Z,87.64
2024-02-13T07:37:23.124Z,87.50
2024-02-13T07:39:52.193Z,87.75
2024-02-13T07:42:22.502Z,87.42
2024-02-13T07:44:52.761Z,87.53
2024-02-13T07:47:23.363Z,86.96
2024-02-13T07:49:54.446Z,85.83
2024-02-13T07:52:24.143Z,86.01
2024-02-13T07:54:53.470Z,86.38
2024-02-13T07:57:23.226Z,86.08
2024-02-13T07:59:56.404Z,86.91
2024-02-13T08:02:26.627Z,86.73
2024-02-13T08:04:57.214Z,86.74
2024-02-13T08:07:29.073Z,86.76
2024-02-13T08:09:58.555Z,86.98
2024-02-13T08:12:28.129Z,86.43
2024-02-13T08:14:59.230Z,86.67
2024-02-13T08:17:28.932Z,86.22
2024-02-13T08:20:00.569Z,86.12
2024-02-13T08:22:30.172Z,86.44
2024-02-13T08:25:02.213Z,85.60
2024-02-13T08:27:31.928Z,86.25
2024-02-13T08:30:01.056Z,85.74
2024-02-13T08:32:32.628Z,86.05
2024-02-13T08:35:03.307Z,85.84
2024-02-13T08:37:32.879Z,85.73
2024-02-13T08:40:01.949Z,84.65
2024-02-13T08:42:35.417Z,84.93
2024-02-13T08:45:03.847Z,85.26
2024-02-13T08:47:33.323Z,85.07
2024-02-13T08:50:04.381Z,84.33
2024-02-13T08:52:34.104Z,84.44
2024-02-13T08:55:03.232Z,84.46
2024-02-13T08:57:32.724Z,84.34
2024-02-13T09:00:01.846Z,84.49
2024-02-13T09:02:31.409Z,84.85
2024-02-13T09:05:00.620Z,84.90
2024-02-13T09:07:31.447Z,83.64
2024-02-13T09:10:00.687Z,83.95
2024-02-13T09:12:30.323Z,83.48
2024-02-13T09:14:59.979Z,82.58
2024-02-13T09:17:29.568Z,81.84
2024-02-13T09:19:59.577Z,82.44
2024-02-13T09:22:30.403Z,82.19
2024-02-13T09:24:59.295Z,83.21
2024-02-13T09:27:28.678Z,82.59
2024-02-13T09:29:57.891Z,83.19
2024-02-13T09:32:27.333Z,82.91
2024-02-13T09:34:56.534Z,83.49
2024-02-13T09:37:26.753Z,83.20
2024-02-13T09:39:57.234Z,80.05
2024-02-13T09:42:28.428Z,79.18
2024-02-13T09:44:58.222Z,79.42
2024-02-13T09:47:30.277Z,78.31
2024-02-13T09:50:01.860Z,78.60
2024-02-13T09:52:33.818Z,79.42
2024-02-13T09:55:04.983Z,79.29
2024-02-13T09:57:34.471Z,78.92
2024-02-13T10:00:03.730Z,78.28
2024-02-13T10:02:34.484Z,77.87
2024-02-13T10:05:03.726Z,78.02
2024-02-13T10:07:35.284Z,77.51
2024-02-13T10:10:09.737Z,77.55
2024-02-13T10:12:40.832Z,77.12
2024-02-13T10:15:11.097Z,76.73
2024-02-13T10:17:41.651Z,77.72
2024-02-13T10:20:11.818Z,78.29
2024-02-13T10:22:46.292Z,77.90
2024-02-13T10:25:22.737Z,77.16
2024-02-13T10:27:55.784Z,77.65
2024-02-13T10:30:26.152Z,77.99
2024-02-13T10:32:55.806Z,78.15
2024-02-13T10:35:25.665Z,78.98
2024-02-13T10:37:55.128Z,79.76
2024-02-13T10:40:27.720Z,80.34
2024-02-13T10:42:58.129Z,81.56
2024-02-13T10:45:30.234Z,81.61
2024-02-13T10:48:05.194Z,83.67
2024-02-13T10:50:37.040Z,82.04
2024-02-13T10:53:07.284Z,81.97
2024-02-13T10:55:41.265Z,81.07
2024-02-13T10:58:24.057Z,79.89
2024-02-13T11:00:58.312Z,78.78
2024-02-13T11:03:28.480Z,78.54
2024-02-13T11:05:58.422Z,78.00
2024-02-13T11:08:29.761Z,79.11
2024-02-13T11:11:04.891Z,76.99
2024-02-13T11:13:36.257Z,75.55
2024-02-13T11:16:10.454Z,70.19
2024-02-13T11:18:49.604Z,68.56
2024-02-13T11:21:23.564Z,70.01
2024-02-13T11:23:54.642Z,71.33
2024-02-13T11:26:26.663Z,71.02
2024-02-13T11:28:56.717Z,69.76
2024-02-13T11:31:28.045Z,70.60
2024-02-13T11:34:09.187Z,70.14
2024-02-13T11:36:39.225Z,70.19
2024-02-13T11:39:09.446Z,70.12
2024-02-13T11:41:40.199Z,70.29
2024-02-13T11:44:11.204Z,70.08
2024-02-13T11:46:51.764Z,69.48
2024-02-13T11:49:21.467Z,71.29
2024-02-13T11:51:50.765Z,72.00
2024-02-13T11:54:20.591Z,71.76
2024-02-13T11:59:23.179Z,72.56
2024-02-13T12:01:54.181Z,72.74
2024-02-13T12:04:23.633Z,72.40
2024-02-13T12:06:53.891Z,72.49
2024-02-13T12:09:26.883Z,73.23
2024-02-13T12:11:57.703Z,73.67
2024-02-13T12:14:30.573Z,73.11
2024-02-13T12:17:07.594Z,74.25
2024-02-13T12:19:41.593Z,74.96
2024-02-13T12:22:11.920Z,74.41
2024-02-13T12:24:43.030Z,75.02
2024-02-13T12:27:16.108Z,74.17
2024-02-13T12:29:46.042Z,73.93
2024-02-13T12:32:18.180Z,74.11
2024-02-13T12:34:50.750Z,73.71
2024-02-13T12:37:21.576Z,73.65
2024-02-13T12:39:51.557Z,73.53
2024-02-13T12:42:22.103Z,73.52
2024-02-13T12:44:51.857Z,71.77
2024-02-13T12:47:22.879Z,71.64
2024-02-13T12:49:52.518Z,72.44
2024-02-13T12:52:23.929Z,72.54
2024-02-13T12:54:53.637Z,72.62
2024-02-13T12:57:25.978Z,73.34
2024-02-13T12:59:57.120Z,73.10
2024-02-13T13:02:28.610Z,73.04
2024-02-13T13:04:58.740Z,72.99
2024-02-13T13:07:30.369Z,72.83
2024-02-13T13:09:59.840Z,72.26
2024-02-13T13:12:30.374Z,72.26
2024-02-13T13:15:04.045Z,71.69
2024-02-13T13:17:40.638Z,72.30
2024-02-13T13:20:11.740Z,72.60
2024-02-13T13:22:42.328Z,72.68
2024-02-13T13:25:13.537Z,73.32
2024-02-13T13:27:44.173Z,72.87
2024-02-13T13:30:17.016Z,72.65
2024-02-13T13:32:47.013Z,72.98
2024-02-13T13:35:21.445Z,74.43
2024-02-13T13:37:50.899Z,74.75
2024-02-13T13:40:23.062Z,74.00
2024-02-13T13:42:53.944Z,75.14
2024-02-13T13:45:23.347Z,76.01
2024-02-13T13:47:54.287Z,77.90
2024-02-13T13:50:25.586Z,77.56
2024-02-13T13:52:55.063Z,78.29
2024-02-13T13:55:24.552Z,78.49
2024-02-13T13:57:55.055Z,78.48
2024-02-13T14:00:24.660Z,78.80
2024-02-13T14:02:53.744Z,78.95
2024-02-13T14:05:24.866Z,78.68
2024-02-13T14:07:54.204Z,78.99
2024-02-13T14:10:23.677Z,78.01
2024-02-13T14:12:54.366Z,78.39
2024-02-13T14:15:24.022Z,77.93
2024-02-13T14:17:53.375Z,77.98
2024-02-13T14:20:22.908Z,78.02
2024-02-13T14:22:52.458Z,77.40
2024-02-13T14:25:22.185Z,77.68
2024-02-13T14:27:51.397Z,77.74
2024-02-13T14:30:22.464Z,77.12
2024-02-13T14:32:53.410Z,77.40
2024-02-13T14:35:23.094Z,76.91
2024-02-13T14:37:53.227Z,76.80
2024-02-13T14:40:23.031Z,76.88
2024-02-13T14:42:52.537Z,76.55
2024-02-13T14:45:23.312Z,77.17
2024-02-13T14:47:53.255Z,77.60
2024-02-13T14:50:26.194Z,77.30
2024-02-13T14:52:56.031Z,78.34
2024-02-13T14:55:26.550Z,78.35
2024-02-13T14:58:06.427Z,77.59
2024-02-13T15:00:45.763Z,77.73
2024-02-13T15:03:15.079Z,78.52
2024-02-13T15:05:44.752Z,78.33
2024-02-13T15:08:17.193Z,77.97
2024-02-13T15:10:47.287Z,78.33
2024-02-13T15:13:17.137Z,77.38
2024-02-13T15:15:50.092Z,77.18
2024-02-13T15:18:19.605Z,77.71
2024-02-13T15:20:49.496Z,77.47
2024-02-13T15:23:18.629Z,77.92
2024-02-13T15:25:48.164Z,78.36
2024-02-13T15:28:17.536Z,79.45
2024-02-13T15:30:48.317Z,79.24
2024-02-13T15:33:17.547Z,79.14
2024-02-13T15:35:53.546Z,79.00
2024-02-13T15:38:40.060Z,78.89
2024-02-13T15:41:26.832Z,78.40
2024-02-13T15:44:13.521Z,79.43
2024-02-13T15:47:06.049Z,78.70
2024-02-13T15:49:36.475Z,78.74
2024-02-13T15:52:07.191Z,79.27
2024-02-13T15:54:37.268Z,78.82
2024-02-13T15:57:09.857Z,78.98
2024-02-13T15:59:39.337Z,78.73
2024-02-13T16:02:11.368Z,78.74
2024-02-13T16:04:40.575Z,78.67
2024-02-13T16:07:11.231Z,78.64
2024-02-13T16:09:42.858Z,79.45
2024-02-13T16:12:12.433Z,78.70
2024-02-13T16:14:42.666Z,79.48
2024-02-13T16:17:13.525Z,79.39
2024-02-13T16:19:42.814Z,80.09
2024-02-13T16:22:12.506Z,79.91
2024-02-13T16:24:41.635Z,79.87
2024-02-13T16:27:11.094Z,80.21
2024-02-13T16:29:40.998Z,80.35
2024-02-13T16:32:13.082Z,79.91
2024-02-13T16:34:45.527Z,79.79
2024-02-13T16:37:15.916Z,79.85
2024-02-13T16:39:45.118Z,79.51
2024-02-13T16:42:14.498Z,79.46
2024-02-13T16:44:44.911Z,80.16
2024-02-13T16:47:14.416Z,80.78
2024-02-13T16:49:45.681Z,81.50
2024-02-13T16:52:15.143Z,80.12
2024-02-13T16:54:44.332Z,80.89
2024-02-13T16:57:14.773Z,81.23
2024-02-13T16:59:43.916Z,80.82
2024-02-13T17:02:13.408Z,80.46
2024-02-13T17:04:44.513Z,80.54
2024-02-13T17:07:15.451Z,79.89
2024-02-13T17:09:45.448Z,80.69
2024-02-13T17:12:14.712Z,80.72
2024-02-13T17:14:43.901Z,81.01
2024-02-13T17:17:17.516Z,80.66
2024-02-13T17:19:47.925Z,80.98
2024-02-13T17:22:18.769Z,80.03
2024-02-13T17:24:48.648Z,81.00
2024-02-13T17:27:18.137Z,80.36
2024-02-13T17:29:47.557Z,80.19
2024-02-13T17:32:16.967Z,80.57
2024-02-13T17:34:46.105Z,81.02
2024-02-13T17:37:17.199Z,80.75
2024-02-13T17:39:46.369Z,80.55
2024-02-13T17:42:15.818Z,80.63
2024-02-13T17:44:44.997Z,80.72
2024-02-13T17:47:14.399Z,80.91
2024-02-13T17:49:43.673Z,80.61
2024-02-13T17:52:13.276Z,80.55
2024-02-13T17:54:44.014Z,81.10
2024-02-13T17:57:13.420Z,80.65
2024-02-13T17:59:42.529Z,81.25
2024-02-13T18:02:11.947Z,81.77
2024-02-13T18:04:41.085Z,81.78
2024-02-13T18:07:13.733Z,83.38
2024-02-13T18:09:44.754Z,83.63
2024-02-13T18:12:14.178Z,84.34
2024-02-13T18:14:43.683Z,84.08
2024-02-13T18:17:14.438Z,83.94
2024-02-13T18:19:43.624Z,83.37
2024-02-13T18:22:13.228Z,83.38
2024-02-13T18:24:43.743Z,83.27
2024-02-13T18:27:14.770Z,82.67
2024-02-13T18:29:44.127Z,83.06
2024-02-13T18:32:13.561Z,82.25
2024-02-13T18:34:46.000Z,82.07
2024-02-13T18:37:15.617Z,82.12
2024-02-13T18:39:51.177Z,82.45
2024-02-13T18:42:21.503Z,83.11
2024-02-13T18:44:50.889Z,83.10
2024-02-13T18:47:20.316Z,83.46
2024-02-13T18:49:50.082Z,83.39
2024-02-13T18:52:19.475Z,82.80
2024-02-13T18:54:49.989Z,83.23
2024-02-13T18:57:19.531Z,83.33
2024-02-13T18:59:48.937Z,82.88
2024-02-13T19:02:20.991Z,82.97
2024-02-13T19:04:50.300Z,83.70
2024-02-13T19:07:19.668Z,84.43
2024-02-13T19:09:50.176Z,84.38
2024-02-13T19:12:19.575Z,84.02
2024-02-13T19:14:48.730Z,84.40
2024-02-13T19:17:19.928Z,85.19
2024-02-13T19:19:50.397Z,84.48
2024-02-13T19:22:19.873Z,84.94
2024-02-13T19:24:50.362Z,85.82
2024-02-13T19:27:19.804Z,86.13
2024-02-13T19:29:49.290Z,86.96
2024-02-13T19:32:18.682Z,86.48
2024-02-13T19:34:47.880Z,85.79
2024-02-13T19:37:17.257Z,85.51
2024-02-13T19:39:46.769Z,86.13
2024-02-13T19:42:18.335Z,86.08
2024-02-13T19:44:47.505Z,86.32
2024-02-13T19:47:17.307Z,86.68
2024-02-13T19:49:46.526Z,86.93
2024-02-13T19:52:16.054Z,87.28
2024-02-13T19:54:45.210Z,86.67
2024-02-13T19:57:14.992Z,86.80
2024-02-13T19:59:47.394Z,87.73
2024-02-13T20:02:20.325Z,88.98
2024-02-13T20:04:50.719Z,89.11
2024-02-13T20:07:20.193Z,89.06
2024-02-13T20:09:49.269Z,89.35
2024-02-13T20:12:21.421Z,89.90
2024-02-13T20:14:53.023Z,89.62
2024-02-13T20:17:22.647Z,89.87
2024-02-13T20:19:53.216Z,89.80
2024-02-13T20:22:22.888Z,89.89
2024-02-13T20:24:52.142Z,89.51
2024-02-13T20:27:21.842Z,89.74
2024-02-13T20:29:53.003Z,89.67
2024-02-13T20:32:22.543Z,89.93
2024-02-13T20:34:51.718Z,90.02
2024-02-13T20:37:21.670Z,90.35
2024-02-13T20:39:50.798Z,90.47
2024-02-13T20:42:22.165Z,90.65
2024-02-13T20:44:55.477Z,90.57
2024-02-13T20:47:27.714Z,90.38
2024-02-13T20:49:57.019Z,91.54
2024-02-13T20:52:29.520Z,91.06
2024-02-13T20:54:58.731Z,91.07
2024-02-13T20:57:28.106Z,90.36
2024-02-13T20:59:58.656Z,89.77
2024-02-13T21:02:29.583Z,89.83
2024-02-13T21:04:59.791Z,89.58
2024-02-13T21:07:29.289Z,89.49
2024-02-13T21:09:58.390Z,89.87
2024-02-13T21:12:29.206Z,90.12
2024-02-13T21:14:59.844Z,90.01
2024-02-13T21:17:30.263Z,89.73
2024-02-13T21:20:01.514Z,89.33
2024-02-13T21:22:48.666Z,89.00
2024-02-13T21:25:18.361Z,88.70
2024-02-13T21:27:47.780Z,88.97
2024-02-13T21:30:18.774Z,88.84
2024-02-13T21:32:48.666Z,88.27
2024-02-13T21:35:18.283Z,87.69
2024-02-13T21:37:47.817Z,87.47
2024-02-13T21:40:17.058Z,88.34
2024-02-13T21:42:47.903Z,88.44
2024-02-13T21:45:18.436Z,88.44
2024-02-13T21:47:48.119Z,88.31
2024-02-13T21:50:19.176Z,88.08
2024-02-13T21:52:48.892Z,88.32
2024-02-13T21:55:17.982Z,88.25
2024-02-13T21:57:47.377Z,88.11
2024-02-13T22:00:18.944Z,88.17
2024-02-13T22:02:48.494Z,87.97
2024-02-13T22:05:17.907Z,88.52
2024-02-13T22:07:47.325Z,88.59
2024-02-13T22:10:16.394Z,88.09
2024-02-13T22:12:47.313Z,87.69
2024-02-13T22:15:19.901Z,87.95
2024-02-13T22:17:49.724Z,88.08
2024-02-13T22:20:19.113Z,88.08
2024-02-13T22:22:48.540Z,87.47
2024-02-13T22:25:19.617Z,87.87
2024-02-13T22:27:49.077Z,87.60
2024-02-13T22:30:19.985Z,87.51
2024-02-13T22:32:50.327Z,88.17
2024-02-13T22:35:19.628Z,88.56
2024-02-13T22:37:49.498Z,87.77
2024-02-13T22:40:19.115Z,88.22
2024-02-13T22:42:48.585Z,87.50
2024-02-13T22:45:19.252Z,88.23
2024-02-13T22:48:00.092Z,87.85
2024-02-13T22:50:29.588Z,88.09
2024-02-13T22:52:59.962Z,87.40
2024-02-13T22:55:30.084Z,87.34
2024-02-13T22:57:59.765Z,87.70
2024-02-13T23:00:50.542Z,87.33
2024-02-13T23:03:20.923Z,87.51
2024-02-13T23:05:55.232Z,87.32
2024-02-13T23:08:27.528Z,86.90
2024-02-13T23:10:57.415Z,87.30
2024-02-13T23:13:33.455Z,86.81
2024-02-13T23:16:09.427Z,86.78
2024-02-13T23:18:39.202Z,86.65
2024-02-13T23:21:08.726Z,86.70
2024-02-13T23:23:38.291Z,87.40
2024-02-13T23:26:09.126Z,87.04
2024-02-13T23:28:48.782Z,86.70
2024-02-13T23:31:26.746Z,86.80
2024-02-13T23:33:56.423Z,86.74
2024-02-13T23:36:26.377Z,86.39
2024-02-13T23:38:55.867Z,86.77
2024-02-13T23:41:25.030Z,86.03
2024-02-13T23:43:54.469Z,86.03
2024-02-13T23:46:23.566Z,85.55
2024-02-13T23:48:55.831Z,86.05
2024-02-13T23:51:25.102Z,86.00
2024-02-13T23:53:55.017Z,86.00
2024-02-13T23:56:24.633Z,85.84
2024-02-13T23:58:54.188Z,85.63
